sensor_id;sensor_type;location;lat;lon;timestamp;temperature;humidity
24678;DHT22;12800;53.094;8.778;2023-04-01T00:00:32;12.20;90.80
24678;DHT22;12800;53.094;8.778;2023-04-01T00:02:58;12.20;90.90
24678;DHT22;12800;53.094;8.778;2023-04-01T00:05:24;12.20;91.20
24678;DHT22;12800;53.094;8.778;2023-04-01T00:07:50;12.20;90.90
24678;DHT22;12800;53.094;8.778;2023-04-01T00:10:16;12.20;90.90
24678;DHT22;12800;53.094;8.778;2023-04-01T00:12:42;12.10;90.90
24678;DHT22;12800;53.094;8.778;2023-04-01T00:15:10;12.10;90.90
24678;DHT22;12800;53.094;8.778;2023-04-01T00:17:36;12.10;91.00
24678;DHT22;12800;53.094;8.778;2023-04-01T00:20:03;12.10;91.00
24678;DHT22;12800;53.094;8.778;2023-04-01T00:22:29;12.10;90.90
24678;DHT22;12800;53.094;8.778;2023-04-01T00:24:54;12.10;90.90
24678;DHT22;12800;53.094;8.778;2023-04-01T00:27:20;12.10;91.00
24678;DHT22;12800;53.094;8.778;2023-04-01T00:29:46;12.10;91.00
24678;DHT22;12800;53.094;8.778;2023-04-01T00:32:13;12.10;91.10
24678;DHT22;12800;53.094;8.778;2023-04-01T00:34:39;12.10;91.10
24678;DHT22;12800;53.094;8.778;2023-04-01T00:37:09;12.10;91.10
24678;DHT22;12800;53.094;8.778;2023-04-01T00:39:35;12.10;91.10
24678;DHT22;12800;53.094;8.778;2023-04-01T00:42:03;12.10;91.20
24678;DHT22;12800;53.094;8.778;2023-04-01T00:44:32;12.10;91.20
24678;DHT22;12800;53.094;8.778;2023-04-01T00:46:58;12.10;91.20
24678;DHT22;12800;53.094;8.778;2023-04-01T00:49:32;12.10;91.20
24678;DHT22;12800;53.094;8.778;2023-04-01T00:52:00;12.10;91.20
24678;DHT22;12800;53.094;8.778;2023-04-01T00:54:27;12.10;91.30
24678;DHT22;12800;53.094;8.778;2023-04-01T00:57:00;12.10;91.20
24678;DHT22;12800;53.094;8.778;2023-04-01T00:59:30;12.20;91.50
24678;DHT22;12800;53.094;8.778;2023-04-01T01:01:56;12.20;91.20
24678;DHT22;12800;53.094;8.778;2023-04-01T01:04:30;12.20;91.20
24678;DHT22;12800;53.094;8.778;2023-04-01T01:13:20;12.20;91.20
24678;DHT22;12800;53.094;8.778;2023-04-01T01:15:59;12.20;91.20
24678;DHT22;12800;53.094;8.778;2023-04-01T01:18:52;12.20;91.20
24678;DHT22;12800;53.094;8.778;2023-04-01T01:24:22;12.20;91.20
24678;DHT22;12800;53.094;8.778;2023-04-01T01:35:54;12.20;91.20
24678;DHT22;12800;53.094;8.778;2023-04-01T01:38:26;12.20;91.20
24678;DHT22;12800;53.094;8.778;2023-04-01T01:40:55;12.20;91.20
24678;DHT22;12800;53.094;8.778;2023-04-01T01:43:26;12.20;91.20
24678;DHT22;12800;53.094;8.778;2023-04-01T01:45:57;12.20;91.20
24678;DHT22;12800;53.094;8.778;2023-04-01T01:48:24;12.20;91.20
24678;DHT22;12800;53.094;8.778;2023-04-01T01:50:52;12.20;91.30
24678;DHT22;12800;53.094;8.778;2023-04-01T01:53:17;12.20;91.20
24678;DHT22;12800;53.094;8.778;2023-04-01T01:55:45;12.20;91.20
24678;DHT22;12800;53.094;8.778;2023-04-01T02:00:58;12.20;91.20
24678;DHT22;12800;53.094;8.778;2023-04-01T02:03:27;12.20;91.20
24678;DHT22;12800;53.094;8.778;2023-04-01T02:05:56;12.20;91.20
24678;DHT22;12800;53.094;8.778;2023-04-01T02:08:43;12.20;91.30
24678;DHT22;12800;53.094;8.778;2023-04-01T02:11:14;12.20;91.20
24678;DHT22;12800;53.094;8.778;2023-04-01T02:14:09;12.10;91.20
24678;DHT22;12800;53.094;8.778;2023-04-01T02:16:49;12.10;91.30
24678;DHT22;12800;53.094;8.778;2023-04-01T02:19:17;12.10;91.30
24678;DHT22;12800;53.094;8.778;2023-04-01T02:21:50;12.10;91.30
24678;DHT22;12800;53.094;8.778;2023-04-01T02:24:17;12.10;91.30
24678;DHT22;12800;53.094;8.778;2023-04-01T02:26:43;12.10;91.40
24678;DHT22;12800;53.094;8.778;2023-04-01T02:29:11;12.10;91.40
24678;DHT22;12800;53.094;8.778;2023-04-01T02:31:37;12.10;91.40
24678;DHT22;12800;53.094;8.778;2023-04-01T02:34:03;12.10;91.40
24678;DHT22;12800;53.094;8.778;2023-04-01T02:36:29;12.10;91.40
24678;DHT22;12800;53.094;8.778;2023-04-01T02:38:56;12.10;91.40
24678;DHT22;12800;53.094;8.778;2023-04-01T02:41:29;12.10;91.40
24678;DHT22;12800;53.094;8.778;2023-04-01T02:43:55;12.10;91.40
24678;DHT22;12800;53.094;8.778;2023-04-01T02:46:22;12.10;91.40
24678;DHT22;12800;53.094;8.778;2023-04-01T02:48:48;12.10;91.40
24678;DHT22;12800;53.094;8.778;2023-04-01T02:51:14;12.00;91.40
24678;DHT22;12800;53.094;8.778;2023-04-01T02:53:39;12.00;91.30
24678;DHT22;12800;53.094;8.778;2023-04-01T02:56:05;12.00;91.40
24678;DHT22;12800;53.094;8.778;2023-04-01T02:58:31;12.00;91.40
24678;DHT22;12800;53.094;8.778;2023-04-01T03:00:56;12.00;91.50
24678;DHT22;12800;53.094;8.778;2023-04-01T03:03:22;11.90;91.50
24678;DHT22;12800;53.094;8.778;2023-04-01T03:05:47;11.90;91.50
24678;DHT22;12800;53.094;8.778;2023-04-01T03:08:13;12.00;91.60
24678;DHT22;12800;53.094;8.778;2023-04-01T03:10:39;12.00;91.60
24678;DHT22;12800;53.094;8.778;2023-04-01T03:13:04;12.00;91.60
24678;DHT22;12800;53.094;8.778;2023-04-01T03:15:30;11.90;91.50
24678;DHT22;12800;53.094;8.778;2023-04-01T03:17:55;12.00;91.60
24678;DHT22;12800;53.094;8.778;2023-04-01T03:20:21;12.00;91.60
24678;DHT22;12800;53.094;8.778;2023-04-01T03:22:47;12.00;91.60
24678;DHT22;12800;53.094;8.778;2023-04-01T03:25:13;12.00;91.50
24678;DHT22;12800;53.094;8.778;2023-04-01T03:27:38;12.00;91.50
24678;DHT22;12800;53.094;8.778;2023-04-01T03:30:05;12.00;91.50
24678;DHT22;12800;53.094;8.778;2023-04-01T03:32:31;11.90;91.50
24678;DHT22;12800;53.094;8.778;2023-04-01T03:34:56;11.90;91.50
24678;DHT22;12800;53.094;8.778;2023-04-01T03:37:23;11.90;91.50
24678;DHT22;12800;53.094;8.778;2023-04-01T03:39:49;11.90;91.50
24678;DHT22;12800;53.094;8.778;2023-04-01T03:42:15;11.90;91.50
24678;DHT22;12800;53.094;8.778;2023-04-01T03:44:40;11.90;91.50
24678;DHT22;12800;53.094;8.778;2023-04-01T03:47:06;11.90;91.50
24678;DHT22;12800;53.094;8.778;2023-04-01T03:49:32;11.90;91.50
24678;DHT22;12800;53.094;8.778;2023-04-01T03:51:58;11.90;91.50
24678;DHT22;12800;53.094;8.778;2023-04-01T03:54:24;11.90;91.50
24678;DHT22;12800;53.094;8.778;2023-04-01T03:56:49;11.90;91.50
24678;DHT22;12800;53.094;8.778;2023-04-01T03:59:15;11.90;91.50
24678;DHT22;12800;53.094;8.778;2023-04-01T04:01:41;11.90;91.50
24678;DHT22;12800;53.094;8.778;2023-04-01T04:04:07;11.80;91.50
24678;DHT22;12800;53.094;8.778;2023-04-01T04:06:33;11.80;91.50
24678;DHT22;12800;53.094;8.778;2023-04-01T04:08:58;11.80;91.50
24678;DHT22;12800;53.094;8.778;2023-04-01T04:11:24;11.80;91.50
24678;DHT22;12800;53.094;8.778;2023-04-01T04:13:51;11.80;91.50
24678;DHT22;12800;53.094;8.778;2023-04-01T04:16:17;11.80;91.50
24678;DHT22;12800;53.094;8.778;2023-04-01T04:18:43;11.80;91.50
24678;DHT22;12800;53.094;8.778;2023-04-01T04:21:13;11.80;91.50
24678;DHT22;12800;53.094;8.778;2023-04-01T04:23:39;11.80;91.40
24678;DHT22;12800;53.094;8.778;2023-04-01T04:26:07;11.80;91.40
24678;DHT22;12800;53.094;8.778;2023-04-01T04:28:33;11.80;91.40
24678;DHT22;12800;53.094;8.778;2023-04-01T04:31:00;11.80;91.50
24678;DHT22;12800;53.094;8.778;2023-04-01T04:33:26;11.80;91.50
24678;DHT22;12800;53.094;8.778;2023-04-01T04:35:55;11.70;91.40
24678;DHT22;12800;53.094;8.778;2023-04-01T04:38:21;11.70;91.50
24678;DHT22;12800;53.094;8.778;2023-04-01T04:40:47;11.70;91.50
24678;DHT22;12800;53.094;8.778;2023-04-01T04:43:14;11.70;91.60
24678;DHT22;12800;53.094;8.778;2023-04-01T04:45:40;11.70;91.60
24678;DHT22;12800;53.094;8.778;2023-04-01T04:48:11;11.70;91.60
24678;DHT22;12800;53.094;8.778;2023-04-01T04:50:41;11.70;91.60
24678;DHT22;12800;53.094;8.778;2023-04-01T04:53:10;11.70;91.60
24678;DHT22;12800;53.094;8.778;2023-04-01T04:55:36;11.70;91.60
24678;DHT22;12800;53.094;8.778;2023-04-01T04:58:01;11.70;91.60
24678;DHT22;12800;53.094;8.778;2023-04-01T05:00:27;11.70;91.60
24678;DHT22;12800;53.094;8.778;2023-04-01T05:02:52;11.70;91.60
24678;DHT22;12800;53.094;8.778;2023-04-01T05:05:18;11.70;91.70
24678;DHT22;12800;53.094;8.778;2023-04-01T05:07:43;11.70;91.60
24678;DHT22;12800;53.094;8.778;2023-04-01T05:10:09;11.70;91.60
24678;DHT22;12800;53.094;8.778;2023-04-01T05:12:35;11.70;91.70
24678;DHT22;12800;53.094;8.778;2023-04-01T05:15:07;11.70;91.70
24678;DHT22;12800;53.094;8.778;2023-04-01T05:17:33;11.70;91.70
24678;DHT22;12800;53.094;8.778;2023-04-01T05:19:59;11.70;91.70
24678;DHT22;12800;53.094;8.778;2023-04-01T05:22:25;11.70;91.70
24678;DHT22;12800;53.094;8.778;2023-04-01T05:24:51;11.70;92.10
24678;DHT22;12800;53.094;8.778;2023-04-01T05:27:20;11.70;91.70
24678;DHT22;12800;53.094;8.778;2023-04-01T05:29:45;11.70;91.80
24678;DHT22;12800;53.094;8.778;2023-04-01T05:32:11;11.70;91.70
24678;DHT22;12800;53.094;8.778;2023-04-01T05:34:36;11.80;91.80
24678;DHT22;12800;53.094;8.778;2023-04-01T05:37:02;11.80;91.70
24678;DHT22;12800;53.094;8.778;2023-04-01T05:39:27;11.80;91.70
24678;DHT22;12800;53.094;8.778;2023-04-01T05:41:53;11.80;91.70
24678;DHT22;12800;53.094;8.778;2023-04-01T05:44:19;11.80;91.70
24678;DHT22;12800;53.094;8.778;2023-04-01T05:46:45;11.80;91.60
24678;DHT22;12800;53.094;8.778;2023-04-01T05:49:10;11.80;91.60
24678;DHT22;12800;53.094;8.778;2023-04-01T05:51:36;11.80;91.60
24678;DHT22;12800;53.094;8.778;2023-04-01T05:54:03;11.80;91.70
24678;DHT22;12800;53.094;8.778;2023-04-01T05:56:29;11.80;91.60
24678;DHT22;12800;53.094;8.778;2023-04-01T05:58:55;11.80;91.60
24678;DHT22;12800;53.094;8.778;2023-04-01T06:01:21;11.80;91.60
24678;DHT22;12800;53.094;8.778;2023-04-01T06:03:46;11.80;91.60
24678;DHT22;12800;53.094;8.778;2023-04-01T06:06:23;11.80;91.70
24678;DHT22;12800;53.094;8.778;2023-04-01T06:08:49;11.80;91.70
24678;DHT22;12800;53.094;8.778;2023-04-01T06:11:22;11.80;91.70
24678;DHT22;12800;53.094;8.778;2023-04-01T06:17:13;11.80;91.70
24678;DHT22;12800;53.094;8.778;2023-04-01T06:25:12;11.80;91.70
24678;DHT22;12800;53.094;8.778;2023-04-01T06:30:52;11.80;91.90
24678;DHT22;12800;53.094;8.778;2023-04-01T06:33:40;11.80;91.80
24678;DHT22;12800;53.094;8.778;2023-04-01T06:36:38;11.80;91.70
24678;DHT22;12800;53.094;8.778;2023-04-01T06:50:43;11.90;91.80
24678;DHT22;12800;53.094;8.778;2023-04-01T06:53:18;11.90;91.70
24678;DHT22;12800;53.094;8.778;2023-04-01T06:55:50;11.90;91.70
24678;DHT22;12800;53.094;8.778;2023-04-01T06:58:29;11.90;91.70
24678;DHT22;12800;53.094;8.778;2023-04-01T07:00:59;11.90;91.80
24678;DHT22;12800;53.094;8.778;2023-04-01T07:03:33;11.90;91.80
24678;DHT22;12800;53.094;8.778;2023-04-01T07:06:06;11.90;91.80
24678;DHT22;12800;53.094;8.778;2023-04-01T07:08:38;12.00;91.80
24678;DHT22;12800;53.094;8.778;2023-04-01T07:11:09;12.00;91.70
24678;DHT22;12800;53.094;8.778;2023-04-01T07:13:48;12.00;91.80
24678;DHT22;12800;53.094;8.778;2023-04-01T07:16:35;12.00;91.70
24678;DHT22;12800;53.094;8.778;2023-04-01T07:19:16;12.10;91.80
24678;DHT22;12800;53.094;8.778;2023-04-01T07:24:24;12.10;91.70
24678;DHT22;12800;53.094;8.778;2023-04-01T07:26:54;12.10;91.70
24678;DHT22;12800;53.094;8.778;2023-04-01T07:29:21;12.10;91.70
24678;DHT22;12800;53.094;8.778;2023-04-01T07:31:57;12.20;91.70
24678;DHT22;12800;53.094;8.778;2023-04-01T07:34:35;12.20;91.70
24678;DHT22;12800;53.094;8.778;2023-04-01T07:37:22;12.20;91.60
24678;DHT22;12800;53.094;8.778;2023-04-01T07:40:21;12.20;91.50
24678;DHT22;12800;53.094;8.778;2023-04-01T07:45:47;12.20;91.60
24678;DHT22;12800;53.094;8.778;2023-04-01T07:48:33;12.30;91.50
24678;DHT22;12800;53.094;8.778;2023-04-01T07:53:46;12.30;91.40
24678;DHT22;12800;53.094;8.778;2023-04-01T08:13:08;12.40;91.50
24678;DHT22;12800;53.094;8.778;2023-04-01T08:15:41;12.40;91.60
24678;DHT22;12800;53.094;8.778;2023-04-01T08:20:51;12.50;91.40
24678;DHT22;12800;53.094;8.778;2023-04-01T08:23:31;12.50;91.40
24678;DHT22;12800;53.094;8.778;2023-04-01T08:28:34;12.60;91.40
24678;DHT22;12800;53.094;8.778;2023-04-01T08:31:16;12.70;91.50
24678;DHT22;12800;53.094;8.778;2023-04-01T08:33:44;12.70;91.40
24678;DHT22;12800;53.094;8.778;2023-04-01T08:36:36;12.80;91.40
24678;DHT22;12800;53.094;8.778;2023-04-01T08:39:20;12.80;91.30
24678;DHT22;12800;53.094;8.778;2023-04-01T08:53:17;12.90;91.10
24678;DHT22;12800;53.094;8.778;2023-04-01T08:56:17;12.90;90.90
24678;DHT22;12800;53.094;8.778;2023-04-01T09:25:05;13.30;90.80
24678;DHT22;12800;53.094;8.778;2023-04-01T09:27:47;13.30;90.70
24678;DHT22;12800;53.094;8.778;2023-04-01T09:32:55;13.50;90.80
24678;DHT22;12800;53.094;8.778;2023-04-01T09:35:47;13.50;90.60
24678;DHT22;12800;53.094;8.778;2023-04-01T09:40:58;13.70;90.60
24678;DHT22;12800;53.094;8.778;2023-04-01T09:43:28;13.70;90.50
24678;DHT22;12800;53.094;8.778;2023-04-01T09:46:23;13.70;90.40
24678;DHT22;12800;53.094;8.778;2023-04-01T09:57:39;13.90;90.30
24678;DHT22;12800;53.094;8.778;2023-04-01T10:02:59;13.90;89.80
24678;DHT22;12800;53.094;8.778;2023-04-01T10:13:16;13.90;89.40
24678;DHT22;12800;53.094;8.778;2023-04-01T11:09:04;11.70;88.90
24678;DHT22;12800;53.094;8.778;2023-04-01T11:18:07;11.70;89.10
24678;DHT22;12800;53.094;8.778;2023-04-01T11:26:36;11.70;88.30
24678;DHT22;12800;53.094;8.778;2023-04-01T11:34:59;11.70;87.90
24678;DHT22;12800;53.094;8.778;2023-04-01T11:40:06;11.60;87.50
24678;DHT22;12800;53.094;8.778;2023-04-01T11:45:28;11.40;87.80
24678;DHT22;12800;53.094;8.778;2023-04-01T11:53:00;11.20;87.90
24678;DHT22;12800;53.094;8.778;2023-04-01T11:58:49;11.10;88.20
24678;DHT22;12800;53.094;8.778;2023-04-01T12:04:16;11.10;88.00
24678;DHT22;12800;53.094;8.778;2023-04-01T12:07:02;11.10;88.40
24678;DHT22;12800;53.094;8.778;2023-04-01T12:12:09;11.20;88.50
24678;DHT22;12800;53.094;8.778;2023-04-01T12:26:00;11.20;87.60
24678;DHT22;12800;53.094;8.778;2023-04-01T12:31:35;11.20;88.30
24678;DHT22;12800;53.094;8.778;2023-04-01T12:37:03;11.30;87.70
24678;DHT22;12800;53.094;8.778;2023-04-01T12:43:09;11.20;87.50
24678;DHT22;12800;53.094;8.778;2023-04-01T13:19:05;11.40;86.20
24678;DHT22;12800;53.094;8.778;2023-04-01T13:24:31;11.40;86.10
24678;DHT22;12800;53.094;8.778;2023-04-01T13:30:17;11.40;85.80
24678;DHT22;12800;53.094;8.778;2023-04-01T13:44:11;11.20;85.80
24678;DHT22;12800;53.094;8.778;2023-04-01T13:55:32;10.90;86.30
24678;DHT22;12800;53.094;8.778;2023-04-01T14:00:56;10.90;86.70
24678;DHT22;12800;53.094;8.778;2023-04-01T14:03:40;10.90;86.60
24678;DHT22;12800;53.094;8.778;2023-04-01T14:06:27;10.80;86.50
24678;DHT22;12800;53.094;8.778;2023-04-01T14:14:28;10.60;86.40
24678;DHT22;12800;53.094;8.778;2023-04-01T14:33:01;10.50;86.90
24678;DHT22;12800;53.094;8.778;2023-04-01T14:41:24;10.40;86.60
24678;DHT22;12800;53.094;8.778;2023-04-01T14:49:52;10.30;86.60
24678;DHT22;12800;53.094;8.778;2023-04-01T14:52:30;10.20;86.70
24678;DHT22;12800;53.094;8.778;2023-04-01T14:54:57;10.20;86.40
24678;DHT22;12800;53.094;8.778;2023-04-01T14:57:29;10.20;86.70
24678;DHT22;12800;53.094;8.778;2023-04-01T15:00:17;10.10;86.50
24678;DHT22;12800;53.094;8.778;2023-04-01T15:13:41;10.10;86.80
24678;DHT22;12800;53.094;8.778;2023-04-01T15:38:39;9.80;86.30
24678;DHT22;12800;53.094;8.778;2023-04-01T15:43:49;9.80;86.40
24678;DHT22;12800;53.094;8.778;2023-04-01T16:21:51;9.30;85.30
24678;DHT22;12800;53.094;8.778;2023-04-01T16:24:41;9.20;85.30
24678;DHT22;12800;53.094;8.778;2023-04-01T16:27:18;9.20;85.50
24678;DHT22;12800;53.094;8.778;2023-04-01T16:29:46;9.20;85.50
24678;DHT22;12800;53.094;8.778;2023-04-01T16:37:59;9.20;85.10
24678;DHT22;12800;53.094;8.778;2023-04-01T16:40:44;9.20;85.00
24678;DHT22;12800;53.094;8.778;2023-04-01T16:46:35;9.00;84.70
24678;DHT22;12800;53.094;8.778;2023-04-01T16:59:37;8.90;85.20
24678;DHT22;12800;53.094;8.778;2023-04-01T17:02:17;8.90;85.20
24678;DHT22;12800;53.094;8.778;2023-04-01T17:04:58;9.00;85.10
24678;DHT22;12800;53.094;8.778;2023-04-01T17:10:32;9.00;85.10
24678;DHT22;12800;53.094;8.778;2023-04-01T17:21:18;9.00;84.90
24678;DHT22;12800;53.094;8.778;2023-04-01T17:23:53;9.00;84.70
24678;DHT22;12800;53.094;8.778;2023-04-01T17:29:24;8.90;84.70
24678;DHT22;12800;53.094;8.778;2023-04-01T17:34:33;8.90;85.00
24678;DHT22;12800;53.094;8.778;2023-04-01T17:40:06;8.90;84.80
24678;DHT22;12800;53.094;8.778;2023-04-01T17:59:37;8.70;84.20
24678;DHT22;12800;53.094;8.778;2023-04-01T18:04:55;8.70;83.70
24678;DHT22;12800;53.094;8.778;2023-04-01T18:15:27;8.50;83.30
24678;DHT22;12800;53.094;8.778;2023-04-01T18:23:43;8.40;83.60
24678;DHT22;12800;53.094;8.778;2023-04-01T18:26:22;8.30;83.40
24678;DHT22;12800;53.094;8.778;2023-04-01T18:32:17;8.20;83.40
24678;DHT22;12800;53.094;8.778;2023-04-01T18:35:12;8.20;83.50
24678;DHT22;12800;53.094;8.778;2023-04-01T18:40:38;8.20;83.30
24678;DHT22;12800;53.094;8.778;2023-04-01T18:43:14;8.20;83.50
24678;DHT22;12800;53.094;8.778;2023-04-01T18:48:52;8.20;84.20
24678;DHT22;12800;53.094;8.778;2023-04-01T18:53:57;8.20;85.30
24678;DHT22;12800;53.094;8.778;2023-04-01T18:57:00;8.30;84.30
24678;DHT22;12800;53.094;8.778;2023-04-01T18:59:46;8.20;83.80
24678;DHT22;12800;53.094;8.778;2023-04-01T19:02:31;8.20;84.10
24678;DHT22;12800;53.094;8.778;2023-04-01T19:05:10;8.20;84.40
24678;DHT22;12800;53.094;8.778;2023-04-01T19:07:47;8.30;84.40
24678;DHT22;12800;53.094;8.778;2023-04-01T19:18:46;8.30;83.60
24678;DHT22;12800;53.094;8.778;2023-04-01T19:37:40;8.10;82.50
24678;DHT22;12800;53.094;8.778;2023-04-01T19:43:33;8.00;82.40
24678;DHT22;12800;53.094;8.778;2023-04-01T19:51:39;7.90;82.50
24678;DHT22;12800;53.094;8.778;2023-04-01T19:54:34;7.90;82.40
24678;DHT22;12800;53.094;8.778;2023-04-01T19:59:51;7.80;82.70
24678;DHT22;12800;53.094;8.778;2023-04-01T20:07:53;7.70;82.60
24678;DHT22;12800;53.094;8.778;2023-04-01T20:10:34;7.70;82.40
24678;DHT22;12800;53.094;8.778;2023-04-01T20:13:11;7.60;82.10
24678;DHT22;12800;53.094;8.778;2023-04-01T20:15:45;7.60;82.20
24678;DHT22;12800;53.094;8.778;2023-04-01T20:18:25;7.60;82.60
24678;DHT22;12800;53.094;8.778;2023-04-01T20:21:03;7.60;82.50
24678;DHT22;12800;53.094;8.778;2023-04-01T20:23:40;7.70;82.40
24678;DHT22;12800;53.094;8.778;2023-04-01T20:26:14;7.60;82.00
24678;DHT22;12800;53.094;8.778;2023-04-01T20:37:01;7.60;81.70
24678;DHT22;12800;53.094;8.778;2023-04-01T20:42:29;7.60;81.70
24678;DHT22;12800;53.094;8.778;2023-04-01T20:45:14;7.50;81.00
24678;DHT22;12800;53.094;8.778;2023-04-01T20:53:20;7.50;81.70
24678;DHT22;12800;53.094;8.778;2023-04-01T20:56:01;7.50;81.80
24678;DHT22;12800;53.094;8.778;2023-04-01T21:23:26;7.40;80.30
24678;DHT22;12800;53.094;8.778;2023-04-01T21:37:23;7.30;80.00
24678;DHT22;12800;53.094;8.778;2023-04-01T21:42:45;7.30;80.10
24678;DHT22;12800;53.094;8.778;2023-04-01T22:02:38;7.10;78.90
24678;DHT22;12800;53.094;8.778;2023-04-01T22:08:23;7.10;78.50
24678;DHT22;12800;53.094;8.778;2023-04-01T22:14:09;7.10;78.60
24678;DHT22;12800;53.094;8.778;2023-04-01T22:19:35;7.10;78.30
24678;DHT22;12800;53.094;8.778;2023-04-01T22:22:22;7.00;77.80
24678;DHT22;12800;53.094;8.778;2023-04-01T22:30:31;6.70;76.40
24678;DHT22;12800;53.094;8.778;2023-04-01T22:38:58;6.60;76.40
24678;DHT22;12800;53.094;8.778;2023-04-01T22:47:02;6.50;76.40
24678;DHT22;12800;53.094;8.778;2023-04-01T22:49:39;6.50;76.20
24678;DHT22;12800;53.094;8.778;2023-04-01T22:52:21;6.40;75.90
24678;DHT22;12800;53.094;8.778;2023-04-01T22:54:54;6.30;76.10
24678;DHT22;12800;53.094;8.778;2023-04-01T22:57:54;6.30;76.20
24678;DHT22;12800;53.094;8.778;2023-04-01T23:00:43;6.30;76.40
24678;DHT22;12800;53.094;8.778;2023-04-01T23:03:25;6.30;76.30
24678;DHT22;12800;53.094;8.778;2023-04-01T23:05:53;6.20;76.20
24678;DHT22;12800;53.094;8.778;2023-04-01T23:08:54;6.10;76.00
24678;DHT22;12800;53.094;8.778;2023-04-01T23:19:24;6.00;76.00
24678;DHT22;12800;53.094;8.778;2023-04-01T23:27:10;5.90;76.00
24678;DHT22;12800;53.094;8.778;2023-04-01T23:29:38;5.80;76.10
24678;DHT22;12800;53.094;8.778;2023-04-01T23:32:13;5.80;76.00
24678;DHT22;12800;53.094;8.778;2023-04-01T23:34:39;5.80;76.00
24678;DHT22;12800;53.094;8.778;2023-04-01T23:37:12;5.70;75.60
24678;DHT22;12800;53.094;8.778;2023-04-01T23:39:46;5.70;75.80
24678;DHT22;12800;53.094;8.778;2023-04-01T23:44:48;5.70;75.60
24678;DHT22;12800;53.094;8.778;2023-04-01T23:47:24;5.70;75.50
24678;DHT22;12800;53.094;8.778;2023-04-01T23:49:55;5.60;75.40
24678;DHT22;12800;53.094;8.778;2023-04-01T23:52:27;5.70;75.60
24678;DHT22;12800;53.094;8.778;2023-04-01T23:54:57;5.70;75.40
24678;DHT22;12800;53.094;8.778;2023-04-01T23:57:30;5.60;75.40
